createdAt,value
2023-05-06T00:00:44.447Z,12.14
2023-05-06T00:01:47.187Z,12.13
2023-05-06T00:02:50.166Z,12.13
2023-05-06T00:03:53.596Z,12.12
2023-05-06T00:04:56.945Z,12.12
2023-05-06T00:05:59.660Z,12.11
2023-05-06T00:07:02.567Z,12.13
2023-05-06T00:08:06.255Z,12.15
2023-05-06T00:09:08.909Z,12.11
2023-05-06T00:10:11.972Z,12.14
2023-05-06T00:11:14.599Z,12.16
2023-05-06T00:12:18.496Z,12.18
2023-05-06T00:13:21.179Z,12.20
2023-05-06T00:14:24.050Z,12.20
2023-05-06T00:15:26.743Z,12.19
2023-05-06T00:16:29.567Z,12.18
2023-05-06T00:17:32.305Z,12.20
2023-05-06T00:18:35.290Z,12.30
2023-05-06T00:19:38.871Z,12.31
2023-05-06T00:20:42.146Z,12.34
2023-05-06T00:21:45.362Z,12.36
2023-05-06T00:22:48.203Z,12.37
2023-05-06T00:23:51.160Z,12.41
2023-05-06T00:24:53.850Z,12.38
2023-05-06T00:25:56.665Z,12.59
2023-05-06T00:26:59.348Z,12.57
2023-05-06T00:28:02.212Z,12.48
2023-05-06T00:29:04.884Z,12.45
2023-05-06T00:30:08.153Z,12.51
2023-05-06T00:31:10.940Z,12.50
2023-05-06T00:32:13.584Z,12.51
2023-05-06T00:33:16.399Z,12.52
2023-05-06T00:34:19.095Z,12.56
2023-05-06T00:35:21.806Z,12.56
2023-05-06T00:36:24.994Z,12.60
2023-05-06T00:37:27.676Z,12.55
2023-05-06T00:38:30.553Z,12.69
2023-05-06T00:39:34.636Z,12.69
2023-05-06T00:40:37.879Z,12.71
2023-05-06T00:41:40.979Z,12.64
2023-05-06T00:42:43.576Z,12.60
2023-05-06T00:43:46.276Z,12.50
2023-05-06T00:44:49.680Z,12.49
2023-05-06T00:45:52.460Z,12.54
2023-05-06T00:46:57.213Z,12.58
2023-05-06T00:48:00.292Z,12.54
2023-05-06T00:49:03.230Z,12.56
2023-05-06T00:50:07.244Z,12.57
2023-05-06T00:51:10.166Z,12.55
2023-05-06T00:52:13.806Z,12.57
2023-05-06T00:53:19.808Z,12.56
2023-05-06T00:54:25.401Z,12.56
2023-05-06T00:55:28.588Z,12.63
2023-05-06T00:56:31.574Z,12.66
2023-05-06T00:57:34.624Z,12.58
2023-05-06T00:58:38.248Z,12.73
2023-05-06T00:59:41.160Z,12.67
2023-05-06T01:00:44.793Z,12.67
2023-05-06T01:01:47.620Z,12.60
2023-05-06T01:02:50.470Z,12.57
2023-05-06T01:03:57.531Z,12.59
2023-05-06T01:05:01.111Z,12.62
2023-05-06T01:06:45.776Z,12.63
2023-05-06T01:08:04.036Z,12.57
2023-05-06T01:09:30.266Z,12.59
2023-05-06T01:10:40.885Z,12.68
2023-05-06T01:12:17.257Z,12.57
2023-05-06T01:13:39.455Z,12.55
2023-05-06T01:14:56.480Z,12.56
2023-05-06T01:16:01.482Z,12.55
2023-05-06T01:17:06.519Z,12.41
2023-05-06T01:18:11.884Z,12.41
2023-05-06T01:19:35.208Z,12.37
2023-05-06T01:20:40.225Z,12.36
2023-05-06T01:21:45.888Z,12.33
2023-05-06T01:22:50.390Z,12.34
2023-05-06T01:23:55.869Z,12.36
2023-05-06T01:24:58.618Z,12.33
2023-05-06T01:26:01.428Z,12.36
2023-05-06T01:27:04.440Z,12.37
2023-05-06T01:28:10.650Z,12.42
2023-05-06T01:29:13.356Z,12.51
2023-05-06T01:30:23.173Z,12.57
2023-05-06T01:31:52.574Z,12.51
2023-05-06T01:33:11.815Z,12.50
2023-05-06T01:34:23.707Z,12.52
2023-05-06T01:36:17.629Z,12.40
2023-05-06T01:37:29.061Z,12.40
2023-05-06T01:38:46.357Z,12.49
2023-05-06T01:39:50.331Z,12.43
2023-05-06T01:40:57.034Z,12.42
2023-05-06T01:42:02.816Z,12.51
2023-05-06T01:43:06.756Z,12.47
2023-05-06T01:44:11.114Z,12.46
2023-05-06T01:45:17.167Z,12.43
2023-05-06T01:46:22.139Z,12.50
2023-05-06T01:47:26.054Z,12.42
2023-05-06T01:48:32.478Z,12.35
2023-05-06T01:49:36.259Z,12.40
2023-05-06T01:50:39.247Z,12.44
2023-05-06T01:51:51.180Z,12.47
2023-05-06T01:53:01.471Z,12.35
2023-05-06T01:54:04.770Z,12.34
2023-05-06T01:55:08.027Z,12.47
2023-05-06T01:56:11.188Z,12.48
2023-05-06T01:57:14.072Z,12.42
2023-05-06T01:58:16.933Z,12.49
2023-05-06T01:59:20.288Z,12.46
2023-05-06T02:00:25.158Z,12.44
2023-05-06T02:01:28.156Z,12.44
2023-05-06T02:02:31.005Z,12.42
2023-05-06T02:03:33.852Z,12.46
2023-05-06T02:04:36.501Z,12.51
2023-05-06T02:05:39.399Z,12.51
2023-05-06T02:06:42.717Z,12.44
2023-05-06T02:07:45.610Z,12.49
2023-05-06T02:08:49.077Z,12.47
2023-05-06T02:09:51.683Z,12.44
2023-05-06T02:10:54.413Z,12.36
2023-05-06T02:11:57.140Z,12.35
2023-05-06T02:13:00.027Z,12.31
2023-05-06T02:14:02.711Z,12.32
2023-05-06T02:15:05.906Z,12.40
2023-05-06T02:16:11.974Z,12.45
2023-05-06T02:17:14.835Z,12.42
2023-05-06T02:18:17.566Z,12.40
2023-05-06T02:19:20.272Z,12.42
2023-05-06T02:20:23.619Z,12.38
2023-05-06T02:21:26.681Z,12.39
2023-05-06T02:22:29.635Z,12.37
2023-05-06T02:23:32.466Z,12.34
2023-05-06T02:24:35.191Z,12.33
2023-05-06T02:25:38.039Z,12.20
2023-05-06T02:26:40.761Z,12.32
2023-05-06T02:27:45.175Z,12.09
2023-05-06T02:28:47.936Z,12.17
2023-05-06T02:29:50.911Z,12.17
2023-05-06T02:30:57.671Z,12.07
2023-05-06T02:32:00.485Z,11.97
2023-05-06T02:33:03.577Z,11.92
2023-05-06T02:34:06.945Z,11.88
2023-05-06T02:35:10.292Z,11.80
2023-05-06T02:36:13.236Z,11.80
2023-05-06T02:37:16.034Z,11.76
2023-05-06T02:38:20.122Z,11.69
2023-05-06T02:39:22.979Z,11.68
2023-05-06T02:40:25.641Z,11.73
2023-05-06T02:41:28.450Z,11.65
2023-05-06T02:42:31.163Z,11.58
2023-05-06T02:43:34.112Z,11.60
2023-05-06T02:44:36.852Z,11.52
2023-05-06T02:45:39.601Z,11.64
2023-05-06T02:46:43.827Z,11.64
2023-05-06T02:47:46.660Z,11.66
2023-05-06T02:48:49.441Z,11.57
2023-05-06T02:49:52.579Z,11.63
2023-05-06T02:50:55.224Z,11.57
2023-05-06T02:51:58.290Z,11.53
2023-05-06T02:53:01.025Z,11.45
2023-05-06T02:54:03.760Z,11.52
2023-05-06T02:55:07.175Z,11.54
2023-05-06T02:56:09.957Z,11.42
2023-05-06T02:57:12.948Z,11.35
2023-05-06T02:58:15.658Z,11.43
2023-05-06T02:59:18.378Z,11.34
2023-05-06T03:00:21.211Z,11.23
2023-05-06T03:01:24.467Z,11.29
2023-05-06T03:02:27.271Z,11.27
2023-05-06T03:03:30.060Z,11.25
2023-05-06T03:04:33.009Z,11.22
2023-05-06T03:05:35.728Z,11.32
2023-05-06T03:06:38.430Z,11.18
2023-05-06T03:07:41.527Z,11.15
2023-05-06T03:08:44.276Z,11.09
2023-05-06T03:09:47.196Z,11.21
2023-05-06T03:10:51.011Z,11.14
2023-05-06T03:11:53.638Z,11.21
2023-05-06T03:12:56.297Z,11.20
2023-05-06T03:13:58.906Z,11.14
2023-05-06T03:15:01.695Z,11.07
2023-05-06T03:16:04.668Z,11.00
2023-05-06T03:17:07.338Z,11.05
2023-05-06T03:18:10.259Z,11.10
2023-05-06T03:19:13.210Z,11.21
2023-05-06T03:20:16.364Z,11.18
2023-05-06T03:21:19.130Z,11.23
2023-05-06T03:22:22.608Z,11.19
2023-05-06T03:23:25.287Z,11.19
2023-05-06T03:24:27.989Z,11.13
2023-05-06T03:25:30.657Z,10.99
2023-05-06T03:26:33.482Z,10.93
2023-05-06T03:27:36.366Z,10.90
2023-05-06T03:28:39.249Z,11.01
2023-05-06T03:29:41.959Z,11.12
2023-05-06T03:30:44.773Z,11.10
2023-05-06T03:31:50.279Z,11.07
2023-05-06T03:32:53.337Z,11.06
2023-05-06T03:33:56.122Z,11.06
2023-05-06T03:34:58.865Z,11.11
2023-05-06T03:36:01.488Z,11.15
2023-05-06T03:37:04.299Z,11.18
2023-05-06T03:38:07.263Z,11.21
2023-05-06T03:39:10.432Z,11.21
2023-05-06T03:40:14.095Z,11.23
2023-05-06T03:41:18.213Z,11.34
2023-05-06T03:42:20.905Z,11.38
2023-05-06T03:43:24.093Z,11.38
2023-05-06T03:44:26.780Z,11.41
2023-05-06T03:45:29.494Z,11.41
2023-05-06T03:46:32.955Z,11.41
2023-05-06T03:47:35.738Z,11.39
2023-05-06T03:48:38.612Z,11.31
2023-05-06T03:49:41.269Z,11.33
2023-05-06T03:50:44.243Z,11.38
2023-05-06T03:51:47.429Z,11.24
2023-05-06T03:52:50.195Z,11.27
2023-05-06T03:53:54.750Z,11.49
2023-05-06T03:54:57.660Z,11.41
2023-05-06T03:56:01.838Z,11.53
2023-05-06T03:57:05.538Z,11.60
2023-05-06T03:58:08.464Z,11.54
2023-05-06T03:59:11.290Z,11.49
2023-05-06T04:00:14.652Z,11.54
2023-05-06T04:01:18.364Z,11.56
2023-05-06T04:02:21.082Z,11.48
2023-05-06T04:03:23.745Z,11.57
2023-05-06T04:04:27.482Z,11.52
2023-05-06T04:05:30.123Z,11.55
2023-05-06T04:06:32.916Z,11.51
2023-05-06T04:07:35.740Z,11.55
2023-05-06T04:08:38.783Z,11.55
2023-05-06T04:09:41.585Z,11.53
2023-05-06T04:10:44.747Z,11.62
2023-05-06T04:11:47.470Z,11.66
2023-05-06T04:12:50.355Z,11.66
2023-05-06T04:13:53.010Z,11.68
2023-05-06T04:14:55.588Z,11.53
2023-05-06T04:15:58.612Z,11.54
2023-05-06T04:17:01.488Z,11.64
2023-05-06T04:18:07.768Z,11.68
2023-05-06T04:19:10.878Z,11.69
2023-05-06T04:20:14.535Z,11.68
2023-05-06T04:21:18.512Z,11.72
2023-05-06T04:22:21.595Z,11.74
2023-05-06T04:23:24.206Z,11.83
2023-05-06T04:24:28.892Z,11.86
2023-05-06T04:25:31.443Z,11.99
2023-05-06T04:26:34.244Z,11.96
2023-05-06T04:27:36.921Z,11.93
2023-05-06T04:28:39.785Z,11.87
2023-05-06T04:29:43.017Z,11.86
2023-05-06T04:30:47.010Z,11.86
2023-05-06T04:31:49.959Z,11.91
2023-05-06T04:32:52.770Z,11.94
2023-05-06T04:33:55.604Z,11.95
2023-05-06T04:34:58.240Z,12.06
2023-05-06T04:36:01.192Z,12.06
2023-05-06T04:37:03.947Z,12.14
2023-05-06T04:38:07.002Z,12.17
2023-05-06T04:39:10.674Z,12.19
2023-05-06T04:40:14.095Z,12.18
2023-05-06T04:41:17.143Z,12.20
2023-05-06T04:42:20.018Z,12.27
2023-05-06T04:43:23.488Z,12.35
2023-05-06T04:44:26.210Z,12.38
2023-05-06T04:45:29.987Z,12.41
2023-05-06T04:46:34.286Z,12.40
2023-05-06T04:47:37.429Z,12.45
2023-05-06T04:48:40.182Z,12.53
2023-05-06T04:49:42.987Z,12.53
2023-05-06T04:50:46.001Z,12.60
2023-05-06T04:51:48.796Z,12.58
2023-05-06T04:52:51.483Z,12.61
2023-05-06T04:53:54.148Z,12.62
2023-05-06T04:54:56.757Z,12.63
2023-05-06T04:55:59.424Z,12.69
2023-05-06T04:57:03.411Z,12.74
2023-05-06T04:58:06.253Z,12.76
2023-05-06T04:59:08.991Z,12.83
2023-05-06T05:00:12.264Z,12.70
2023-05-06T05:01:15.303Z,12.67
2023-05-06T05:02:17.998Z,12.83
2023-05-06T05:03:20.656Z,12.95
2023-05-06T05:04:23.511Z,12.93
2023-05-06T05:05:27.952Z,12.93
2023-05-06T05:06:32.141Z,12.87
2023-05-06T05:07:35.028Z,12.93
2023-05-06T05:08:37.732Z,13.11
2023-05-06T05:09:40.470Z,13.23
2023-05-06T05:10:46.246Z,13.28
2023-05-06T05:11:48.909Z,13.24
2023-05-06T05:12:51.727Z,13.22
2023-05-06T05:13:56.478Z,13.30
2023-05-06T05:14:59.902Z,13.25
2023-05-06T05:16:02.670Z,13.30
2023-05-06T05:17:05.776Z,13.31
2023-05-06T05:18:09.103Z,13.37
2023-05-06T05:19:11.882Z,13.42
2023-05-06T05:20:14.620Z,13.30
2023-05-06T05:21:17.281Z,13.41
2023-05-06T05:22:20.198Z,13.45
2023-05-06T05:23:22.908Z,13.52
2023-05-06T05:24:25.524Z,13.59
2023-05-06T05:25:28.190Z,13.67
2023-05-06T05:26:31.166Z,13.73
2023-05-06T05:27:33.981Z,13.78
2023-05-06T05:28:36.729Z,13.86
2023-05-06T05:29:39.420Z,13.91
2023-05-06T05:30:42.012Z,13.93
2023-05-06T05:31:44.920Z,13.97
2023-05-06T05:32:47.845Z,14.00
2023-05-06T05:33:50.953Z,13.93
2023-05-06T05:34:53.607Z,14.01
2023-05-06T05:35:56.357Z,14.13
2023-05-06T05:36:59.210Z,14.22
2023-05-06T05:38:01.994Z,14.29
2023-05-06T05:39:05.036Z,14.44
2023-05-06T05:40:08.441Z,14.52
2023-05-06T05:41:11.371Z,14.68
2023-05-06T05:42:14.743Z,14.78
2023-05-06T05:43:17.545Z,14.90
2023-05-06T05:44:20.365Z,15.00
2023-05-06T05:45:23.064Z,15.11
2023-05-06T05:46:25.741Z,15.20
2023-05-06T05:47:28.390Z,15.31
2023-05-06T05:48:33.135Z,15.46
2023-05-06T05:49:36.322Z,15.51
2023-05-06T05:50:38.905Z,15.57
2023-05-06T05:51:42.025Z,15.76
2023-05-06T05:52:44.735Z,15.86
2023-05-06T05:53:47.535Z,16.05
2023-05-06T05:54:50.286Z,16.20
2023-05-06T05:55:53.255Z,16.36
2023-05-06T05:56:58.258Z,16.42
2023-05-06T05:58:00.928Z,16.51
2023-05-06T05:59:03.808Z,16.71
2023-05-06T06:00:07.219Z,16.82
2023-05-06T06:01:10.396Z,16.89
2023-05-06T06:02:13.325Z,17.05
2023-05-06T06:03:18.563Z,16.95
2023-05-06T06:04:21.435Z,16.94
2023-05-06T06:05:24.072Z,16.83
2023-05-06T06:06:26.901Z,16.89
2023-05-06T06:07:29.654Z,17.08
2023-05-06T06:08:33.359Z,16.98
2023-05-06T06:09:36.199Z,16.97
2023-05-06T06:10:38.862Z,17.05
2023-05-06T06:11:41.636Z,17.06
2023-05-06T06:12:44.781Z,17.07
2023-05-06T06:13:47.600Z,17.04
2023-05-06T06:14:51.001Z,17.31
2023-05-06T06:15:53.785Z,17.42
2023-05-06T06:16:56.659Z,17.28
2023-05-06T06:17:59.578Z,17.23
2023-05-06T06:19:02.532Z,17.10
2023-05-06T06:20:06.126Z,17.10
2023-05-06T06:21:08.981Z,17.09
2023-05-06T06:22:12.725Z,17.30
2023-05-06T06:23:15.583Z,17.31
2023-05-06T06:24:18.366Z,17.47
2023-05-06T06:25:21.745Z,17.38
2023-05-06T06:26:24.596Z,17.44
2023-05-06T06:27:27.495Z,17.49
2023-05-06T06:28:31.518Z,17.60
2023-05-06T06:29:34.231Z,17.75
2023-05-06T06:30:37.666Z,17.86
2023-05-06T06:31:40.786Z,17.90
2023-05-06T06:32:51.807Z,17.93
2023-05-06T06:33:54.442Z,17.98
2023-05-06T06:34:57.015Z,17.99
2023-05-06T06:35:59.890Z,17.87
2023-05-06T06:37:02.511Z,18.05
2023-05-06T06:38:05.191Z,18.03
2023-05-06T06:39:08.672Z,18.08
2023-05-06T06:40:12.024Z,18.22
2023-05-06T06:41:14.745Z,18.44
2023-05-06T06:42:17.900Z,18.58
2023-05-06T06:43:20.989Z,18.74
2023-05-06T06:44:23.646Z,18.67
2023-05-06T06:45:26.331Z,18.73
2023-05-06T06:46:28.932Z,18.72
2023-05-06T06:47:32.016Z,18.57
2023-05-06T06:48:34.804Z,18.74
2023-05-06T06:49:38.751Z,18.75
2023-05-06T06:50:41.393Z,18.84
2023-05-06T06:51:44.207Z,18.91
2023-05-06T06:52:46.867Z,18.84
2023-05-06T06:53:51.674Z,19.12
2023-05-06T06:54:54.391Z,19.38
2023-05-06T06:55:57.117Z,19.45
2023-05-06T06:56:59.769Z,19.62
2023-05-06T06:58:02.862Z,19.70
2023-05-06T06:59:05.611Z,19.90
2023-05-06T07:00:09.260Z,19.85
2023-05-06T07:01:12.010Z,19.92
2023-05-06T07:02:14.755Z,20.03
2023-05-06T07:03:19.695Z,20.12
2023-05-06T07:04:22.744Z,20.15
2023-05-06T07:05:27.098Z,20.26
2023-05-06T07:06:29.770Z,19.99
2023-05-06T07:07:32.776Z,20.37
2023-05-06T07:08:35.582Z,20.39
2023-05-06T07:09:40.234Z,20.61
2023-05-06T07:10:43.070Z,20.74
2023-05-06T07:11:46.022Z,20.58
2023-05-06T07:12:48.858Z,20.52
2023-05-06T07:13:51.871Z,20.67
2023-05-06T07:14:54.842Z,20.38
2023-05-06T07:15:59.203Z,20.26
2023-05-06T07:17:02.138Z,20.42
2023-05-06T07:18:05.094Z,20.22
2023-05-06T07:19:08.008Z,20.51
2023-05-06T07:20:11.142Z,20.61
2023-05-06T07:21:14.021Z,20.74
2023-05-06T07:22:16.776Z,20.81
2023-05-06T07:23:19.450Z,20.96
2023-05-06T07:24:22.454Z,21.19
2023-05-06T07:25:25.751Z,21.15
2023-05-06T07:26:28.487Z,21.08
2023-05-06T07:27:31.195Z,20.92
2023-05-06T07:28:37.693Z,20.85
2023-05-06T07:29:40.467Z,21.04
2023-05-06T07:30:43.423Z,21.22
2023-05-06T07:31:46.195Z,21.14
2023-05-06T07:32:49.149Z,21.17
2023-05-06T07:33:51.983Z,21.22
2023-05-06T07:34:54.752Z,21.43
2023-05-06T07:35:57.430Z,21.16
2023-05-06T07:37:00.401Z,21.40
2023-05-06T07:38:03.265Z,21.16
2023-05-06T07:39:07.052Z,21.08
2023-05-06T07:40:10.051Z,20.95
2023-05-06T07:41:13.240Z,20.79
2023-05-06T07:42:15.855Z,21.08
2023-05-06T07:43:19.002Z,21.04
2023-05-06T07:44:22.087Z,21.09
2023-05-06T07:45:25.380Z,20.75
2023-05-06T07:46:28.575Z,20.94
2023-05-06T07:47:32.889Z,20.99
2023-05-06T07:48:35.767Z,20.54
2023-05-06T07:49:38.542Z,20.96
2023-05-06T07:50:41.236Z,21.31
2023-05-06T07:51:44.583Z,21.08
2023-05-06T07:52:47.341Z,21.39
2023-05-06T07:53:49.968Z,21.53
2023-05-06T07:54:53.418Z,21.64
2023-05-06T07:56:02.348Z,21.62
2023-05-06T07:57:05.592Z,21.44
2023-05-06T07:58:08.253Z,21.76
2023-05-06T07:59:11.932Z,21.74
2023-05-06T08:00:15.013Z,21.81
2023-05-06T08:01:17.892Z,21.61
2023-05-06T08:02:20.852Z,21.86
2023-05-06T08:03:23.918Z,22.00
2023-05-06T08:04:27.003Z,22.08
2023-05-06T08:05:29.921Z,22.06
2023-05-06T08:06:32.567Z,22.23
2023-05-06T08:07:35.215Z,22.52
2023-05-06T08:08:37.934Z,22.36
2023-05-06T08:09:40.714Z,21.99
2023-05-06T08:10:46.622Z,22.45
2023-05-06T08:11:50.832Z,22.57
2023-05-06T08:12:53.602Z,22.65
2023-05-06T08:13:56.455Z,22.57
2023-05-06T08:14:59.210Z,22.48
2023-05-06T08:16:02.640Z,22.07
2023-05-06T08:17:05.817Z,21.63
2023-05-06T08:18:20.862Z,21.48
2023-05-06T08:19:24.843Z,21.66
2023-05-06T08:20:27.731Z,22.16
2023-05-06T08:21:30.977Z,21.87
2023-05-06T08:22:33.600Z,21.75
2023-05-06T08:23:36.316Z,22.09
2023-05-06T08:24:38.863Z,22.46
2023-05-06T08:25:41.445Z,22.26
2023-05-06T08:26:44.555Z,22.24
2023-05-06T08:27:47.364Z,22.36
2023-05-06T08:28:50.488Z,22.45
2023-05-06T08:30:55.700Z,22.85
2023-05-06T08:31:58.512Z,22.88
2023-05-06T08:33:02.164Z,23.31
2023-05-06T08:34:04.886Z,23.45
2023-05-06T08:35:07.986Z,23.11
2023-05-06T08:36:10.820Z,23.11
2023-05-06T08:37:13.648Z,22.38
2023-05-06T08:38:16.366Z,22.41
2023-05-06T08:39:19.316Z,22.76
2023-05-06T08:40:24.096Z,23.22
2023-05-06T08:41:29.028Z,23.24
2023-05-06T08:42:32.956Z,23.49
2023-05-06T08:43:42.393Z,23.78
2023-05-06T08:44:46.078Z,24.09
2023-05-06T08:45:49.796Z,23.76
2023-05-06T08:46:52.981Z,24.21
2023-05-06T08:47:55.868Z,24.14
2023-05-06T08:48:59.777Z,23.95
2023-05-06T08:50:02.970Z,24.13
2023-05-06T08:51:07.126Z,24.05
2023-05-06T08:52:10.224Z,24.19
2023-05-06T08:53:13.992Z,24.05
2023-05-06T08:54:18.163Z,24.09
2023-05-06T08:55:22.611Z,24.06
2023-05-06T08:56:30.196Z,23.56
2023-05-06T08:57:34.240Z,23.38
2023-05-06T08:58:38.872Z,23.57
2023-05-06T08:59:42.781Z,23.77
2023-05-06T09:00:46.714Z,24.19
2023-05-06T09:01:49.489Z,24.54
2023-05-06T09:02:52.187Z,24.68
2023-05-06T09:03:58.230Z,24.75
2023-05-06T09:05:01.703Z,24.38
2023-05-06T09:06:04.958Z,23.96
2023-05-06T09:07:08.551Z,24.33
2023-05-06T09:08:11.871Z,24.49
2023-05-06T09:09:15.132Z,24.56
2023-05-06T09:10:19.181Z,24.20
2023-05-06T09:11:29.836Z,24.24
2023-05-06T09:12:32.827Z,24.31
2023-05-06T09:13:35.548Z,24.39
2023-05-06T09:14:38.356Z,24.62
2023-05-06T09:15:47.548Z,24.41
2023-05-06T09:16:52.612Z,24.95
2023-05-06T09:17:56.061Z,25.01
2023-05-06T09:18:59.376Z,24.89
2023-05-06T09:20:02.317Z,24.93
2023-05-06T09:21:05.219Z,24.93
2023-05-06T09:22:08.660Z,25.08
2023-05-06T09:23:13.185Z,25.19
2023-05-06T09:24:17.168Z,25.18
2023-05-06T09:25:20.896Z,24.49
2023-05-06T09:26:23.841Z,24.89
2023-05-06T09:27:29.952Z,25.23
2023-05-06T09:28:33.586Z,25.41
2023-05-06T09:29:36.290Z,25.05
2023-05-06T09:30:44.316Z,24.85
2023-05-06T09:31:48.570Z,25.03
2023-05-06T09:32:53.468Z,25.04
2023-05-06T09:33:58.226Z,24.77
2023-05-06T09:35:01.818Z,24.68
2023-05-06T09:36:05.077Z,24.57
2023-05-06T09:37:07.713Z,24.55
2023-05-06T09:38:10.784Z,24.00
2023-05-06T09:39:13.536Z,23.15
2023-05-06T09:40:16.375Z,23.37
2023-05-06T09:41:21.372Z,23.32
2023-05-06T09:42:26.371Z,23.81
2023-05-06T09:43:29.335Z,23.88
2023-05-06T09:44:32.888Z,23.91
2023-05-06T09:45:36.437Z,24.33
2023-05-06T09:46:39.344Z,24.40
2023-05-06T09:47:42.566Z,23.65
2023-05-06T09:48:47.031Z,23.03
2023-05-06T09:49:49.824Z,22.76
2023-05-06T09:50:53.615Z,23.25
2023-05-06T09:51:57.866Z,23.65
2023-05-06T09:53:01.577Z,24.19
2023-05-06T09:54:05.073Z,24.22
2023-05-06T09:55:09.456Z,24.74
2023-05-06T09:56:14.119Z,25.49
2023-05-06T09:57:18.513Z,26.08
2023-05-06T09:58:21.774Z,25.24
2023-05-06T09:59:25.962Z,24.60
2023-05-06T10:00:30.159Z,24.66
2023-05-06T10:01:37.252Z,24.66
2023-05-06T10:02:41.983Z,25.30
2023-05-06T10:03:46.461Z,25.49
2023-05-06T10:04:50.313Z,25.75
2023-05-06T10:05:54.637Z,26.12
2023-05-06T10:07:01.032Z,26.32
2023-05-06T10:08:04.571Z,25.81
2023-05-06T10:09:08.608Z,24.47
2023-05-06T10:10:12.326Z,23.95
2023-05-06T10:11:16.022Z,23.46
2023-05-06T10:12:20.348Z,23.25
2023-05-06T10:13:27.109Z,23.14
2023-05-06T10:14:29.876Z,23.24
2023-05-06T10:15:33.182Z,23.06
2023-05-06T10:16:36.835Z,22.97
2023-05-06T10:17:41.352Z,23.13
2023-05-06T10:18:45.992Z,22.98
2023-05-06T10:19:52.659Z,23.06
2023-05-06T10:20:56.342Z,22.64
2023-05-06T10:22:22.316Z,22.49
2023-05-06T10:23:35.627Z,22.47
2023-05-06T10:24:52.192Z,22.51
2023-05-06T10:25:57.667Z,22.44
2023-05-06T10:27:06.014Z,22.29
2023-05-06T10:28:14.239Z,22.01
2023-05-06T10:29:26.970Z,21.66
2023-05-06T10:30:33.422Z,21.85
2023-05-06T10:31:49.604Z,21.90
2023-05-06T10:32:54.520Z,21.68
2023-05-06T10:34:01.279Z,21.70
2023-05-06T10:35:44.497Z,21.45
2023-05-06T10:36:51.039Z,21.66
2023-05-06T10:37:55.274Z,21.71
2023-05-06T10:39:03.750Z,21.93
2023-05-06T10:40:10.152Z,22.03
2023-05-06T10:41:14.309Z,22.41
2023-05-06T10:42:18.865Z,22.34
2023-05-06T10:43:31.476Z,22.42
2023-05-06T10:44:59.840Z,22.62
2023-05-06T10:46:09.615Z,22.52
2023-05-06T10:47:12.207Z,22.75
2023-05-06T10:48:15.000Z,22.87
2023-05-06T10:49:20.090Z,23.07
2023-05-06T10:50:25.300Z,23.54
2023-05-06T10:51:29.297Z,23.47
2023-05-06T10:52:45.616Z,23.51
2023-05-06T10:54:07.155Z,23.43
2023-05-06T10:55:29.982Z,23.51
2023-05-06T10:56:35.126Z,23.32
2023-05-06T10:57:41.666Z,23.36
2023-05-06T10:58:48.166Z,23.76
2023-05-06T10:59:50.946Z,23.79
2023-05-06T11:00:55.732Z,23.87
2023-05-06T11:02:05.032Z,24.38
2023-05-06T11:03:19.006Z,24.90
2023-05-06T11:04:25.970Z,25.26
2023-05-06T11:05:29.045Z,25.65
2023-05-06T11:06:34.343Z,25.41
2023-05-06T11:07:37.282Z,24.74
2023-05-06T11:08:40.106Z,24.49
2023-05-06T11:10:01.302Z,24.62
2023-05-06T11:11:42.427Z,25.31
2023-05-06T11:12:49.630Z,24.94
2023-05-06T11:13:53.533Z,24.86
2023-05-06T11:15:43.903Z,24.64
2023-05-06T11:16:48.750Z,24.58
2023-05-06T11:17:53.453Z,24.57
2023-05-06T11:18:56.476Z,24.60
2023-05-06T11:20:18.886Z,24.17
2023-05-06T11:21:21.475Z,24.58
2023-05-06T11:22:40.907Z,24.85
2023-05-06T11:23:49.690Z,24.46
2023-05-06T11:24:52.475Z,24.43
2023-05-06T11:25:58.009Z,23.89
2023-05-06T11:27:00.868Z,23.47
2023-05-06T11:28:16.664Z,23.70
2023-05-06T11:29:19.968Z,23.87
2023-05-06T11:30:22.660Z,23.93
2023-05-06T11:31:26.569Z,23.62
2023-05-06T11:32:30.078Z,23.56
2023-05-06T11:33:34.243Z,22.86
2023-05-06T11:34:38.566Z,22.93
2023-05-06T11:35:41.428Z,22.82
2023-05-06T11:36:49.685Z,22.85
2023-05-06T11:37:52.841Z,22.78
2023-05-06T11:38:59.820Z,22.96
2023-05-06T11:40:02.512Z,23.08
2023-05-06T11:41:05.687Z,22.91
2023-05-06T11:42:09.277Z,22.81
2023-05-06T11:43:16.557Z,22.63
2023-05-06T11:44:38.851Z,22.71
2023-05-06T11:45:45.615Z,22.58
2023-05-06T11:46:48.489Z,22.62
2023-05-06T11:47:54.891Z,22.58
2023-05-06T11:48:57.906Z,22.39
2023-05-06T11:50:07.956Z,22.33
2023-05-06T11:51:11.027Z,22.27
2023-05-06T11:52:13.790Z,22.02
2023-05-06T11:53:23.823Z,22.09
2023-05-06T11:54:27.603Z,22.07
2023-05-06T11:55:30.393Z,21.94
2023-05-06T11:56:50.387Z,22.17
2023-05-06T11:57:53.701Z,22.24
2023-05-06T11:58:57.033Z,22.25
2023-05-06T11:59:59.801Z,22.30
2023-05-06T12:01:04.361Z,22.25
2023-05-06T12:02:13.161Z,22.04
2023-05-06T12:03:16.226Z,22.02
2023-05-06T12:04:18.992Z,21.85
2023-05-06T12:05:24.120Z,21.68
2023-05-06T12:06:35.353Z,21.82
2023-05-06T12:07:38.723Z,21.67
2023-05-06T12:08:41.726Z,21.68
2023-05-06T12:09:50.513Z,21.62
2023-05-06T12:10:56.137Z,21.56
2023-05-06T12:11:59.096Z,21.48
2023-05-06T12:13:02.685Z,21.42
2023-05-06T12:14:07.540Z,21.35
2023-05-06T12:15:11.844Z,21.46
2023-05-06T12:16:15.941Z,21.42
2023-05-06T12:17:19.387Z,21.33
2023-05-06T12:18:23.429Z,21.15
2023-05-06T12:19:26.762Z,21.28
2023-05-06T12:20:29.638Z,21.28
2023-05-06T12:21:33.288Z,21.29
2023-05-06T12:22:37.159Z,21.18
2023-05-06T12:23:52.579Z,21.35
2023-05-06T12:24:55.337Z,21.45
2023-05-06T12:26:06.356Z,21.48
2023-05-06T12:27:09.231Z,21.46
2023-05-06T12:28:19.232Z,21.67
2023-05-06T12:29:22.407Z,21.74
2023-05-06T12:30:32.494Z,21.67
2023-05-06T12:31:35.360Z,21.81
2023-05-06T12:32:57.370Z,21.86
2023-05-06T12:34:01.301Z,21.84
2023-05-06T12:35:07.656Z,21.93
2023-05-06T12:36:10.905Z,21.95
2023-05-06T12:37:27.878Z,22.02
2023-05-06T12:38:32.659Z,22.17
2023-05-06T12:39:39.437Z,22.15
2023-05-06T12:40:43.751Z,22.00
2023-05-06T12:41:47.037Z,22.18
2023-05-06T12:42:55.855Z,22.16
2023-05-06T12:43:58.647Z,22.07
2023-05-06T12:45:16.534Z,22.07
2023-05-06T12:46:21.682Z,22.08
2023-05-06T12:47:26.124Z,21.93
2023-05-06T12:48:29.064Z,21.96
2023-05-06T12:49:52.945Z,21.91
2023-05-06T12:50:55.570Z,21.76
2023-05-06T12:52:09.942Z,21.65
2023-05-06T12:53:13.497Z,21.76
2023-05-06T12:54:32.240Z,21.72
2023-05-06T12:55:37.442Z,21.71
2023-05-06T12:56:40.123Z,21.41
2023-05-06T12:57:42.758Z,21.45
2023-05-06T12:58:59.180Z,21.26
2023-05-06T13:00:03.131Z,21.51
2023-05-06T13:01:07.896Z,21.49
2023-05-06T13:02:10.691Z,21.50
2023-05-06T13:03:14.186Z,21.56
2023-05-06T13:04:16.849Z,21.46
2023-05-06T13:05:19.484Z,21.40
2023-05-06T13:06:22.545Z,21.44
2023-05-06T13:07:25.484Z,21.51
2023-05-06T13:08:29.540Z,21.51
2023-05-06T13:09:32.550Z,21.40
2023-05-06T13:10:35.279Z,21.41
2023-05-06T13:11:38.239Z,21.19
2023-05-06T13:12:40.945Z,21.17
2023-05-06T13:13:43.853Z,21.30
2023-05-06T13:14:46.509Z,21.24
2023-05-06T13:15:49.492Z,21.24
2023-05-06T13:16:53.535Z,21.25
2023-05-06T13:17:57.476Z,21.14
2023-05-06T13:19:00.390Z,21.17
2023-05-06T13:20:05.509Z,21.03
2023-05-06T13:21:08.530Z,21.02
2023-05-06T13:22:11.249Z,20.98
2023-05-06T13:23:14.081Z,20.99
2023-05-06T13:24:17.237Z,20.84
2023-05-06T13:25:19.970Z,20.74
2023-05-06T13:26:22.640Z,20.72
2023-05-06T13:27:25.580Z,20.95
2023-05-06T13:28:28.267Z,20.92
2023-05-06T13:29:32.065Z,20.74
2023-05-06T13:30:34.829Z,20.77
2023-05-06T13:31:37.638Z,20.44
2023-05-06T13:32:40.848Z,20.48
2023-05-06T13:33:43.530Z,20.42
2023-05-06T13:34:46.838Z,20.27
2023-05-06T13:35:49.495Z,20.32
2023-05-06T13:36:54.956Z,20.14
2023-05-06T13:37:57.957Z,20.08
2023-05-06T13:39:00.911Z,19.95
2023-05-06T13:40:04.998Z,19.95
2023-05-06T13:41:08.871Z,20.08
2023-05-06T13:42:14.126Z,19.94
2023-05-06T13:43:17.233Z,19.85
2023-05-06T13:44:20.972Z,19.94
2023-05-06T13:45:23.992Z,19.97
2023-05-06T13:46:29.954Z,20.07
2023-05-06T13:47:32.913Z,20.04
2023-05-06T13:48:35.796Z,20.01
2023-05-06T13:49:38.555Z,19.92
2023-05-06T13:50:46.082Z,19.98
2023-05-06T13:51:48.960Z,19.58
2023-05-06T13:52:51.477Z,19.70
2023-05-06T13:53:54.240Z,19.86